Terminal Aerodrome Forecast
Issued by NWS Wichita, KS

Home | Current Version | Previous Version | Graphics & Text | Print | Product List | Glossary On
Versions: 1 2 3 4 5 6 7 8 9 10 11 12 13 14 15 16 17 18 19 20 21 22 23 24 25
047
FTUS43 KICT 281134
TAFICT
TAF
KICT 281134Z 2812/2912 27006KT P6SM SCT010
     FM281500 27008KT P6SM SCT025
     FM290000 17005KT P6SM SKC
      TEMPO 2908/2912 3SM BR=

USA.gov is the U.S. government's official web portal to all federal, state and local government web resources and services.